createdAt,value
2022-10-09T00:03:07.309Z,9.55
2022-10-09T00:08:08.752Z,9.43
2022-10-09T00:13:10.961Z,9.30
2022-10-09T00:18:15.518Z,9.16
2022-10-09T00:23:18.332Z,9.10
2022-10-09T00:28:21.184Z,9.29
2022-10-09T00:33:23.015Z,9.22
2022-10-09T00:38:24.531Z,9.12
2022-10-09T00:43:42.385Z,9.05
2022-10-09T00:48:44.203Z,8.92
2022-10-09T00:53:45.648Z,8.80
2022-10-09T00:58:51.700Z,8.76
2022-10-09T01:03:53.248Z,8.75
2022-10-09T01:09:05.073Z,8.66
2022-10-09T01:14:19.486Z,8.59
2022-10-09T01:19:45.823Z,8.53
2022-10-09T01:25:14.462Z,8.44
2022-10-09T01:30:16.031Z,8.41
2022-10-09T01:35:18.094Z,8.36
2022-10-09T01:40:21.439Z,8.40
2022-10-09T01:45:23.011Z,8.35
2022-10-09T01:50:32.796Z,8.54
2022-10-09T01:55:47.111Z,8.84
2022-10-09T02:00:59.497Z,8.81
2022-10-09T02:06:03.786Z,8.65
2022-10-09T02:11:06.417Z,8.54
2022-10-09T02:16:28.327Z,8.48
2022-10-09T02:21:40.159Z,8.42
2022-10-09T02:26:42.591Z,8.32
2022-10-09T02:31:44.760Z,8.28
2022-10-09T02:36:47.013Z,8.27
2022-10-09T02:41:48.447Z,8.20
2022-10-09T02:46:50.066Z,8.18
2022-10-09T02:51:51.585Z,8.17
2022-10-09T02:56:52.993Z,8.12
2022-10-09T03:01:54.522Z,8.06
2022-10-09T03:06:56.012Z,7.99
2022-10-09T03:11:57.564Z,7.95
2022-10-09T03:16:59.198Z,7.98
2022-10-09T03:22:00.598Z,8.02
2022-10-09T03:27:02.109Z,8.04
2022-10-09T03:32:03.788Z,8.01
2022-10-09T03:37:05.255Z,7.98
2022-10-09T03:42:06.777Z,8.00
2022-10-09T03:47:08.365Z,8.04
2022-10-09T03:52:09.852Z,8.05
2022-10-09T03:57:11.287Z,8.05
2022-10-09T04:02:12.736Z,8.03
2022-10-09T04:07:14.265Z,8.03
2022-10-09T04:12:15.821Z,8.03
2022-10-09T04:17:17.331Z,8.02
2022-10-09T04:22:18.984Z,8.02
2022-10-09T04:27:20.445Z,8.01
2022-10-09T04:32:21.964Z,7.99
2022-10-09T04:37:23.456Z,8.00
2022-10-09T04:42:24.917Z,7.99
2022-10-09T04:47:26.394Z,7.96
2022-10-09T04:52:27.864Z,7.95
2022-10-09T04:57:29.761Z,7.94
2022-10-09T05:02:31.377Z,7.98
2022-10-09T05:07:32.962Z,7.98
2022-10-09T05:12:34.436Z,8.02
2022-10-09T05:17:35.986Z,8.08
2022-10-09T05:22:37.511Z,8.11
2022-10-09T05:27:39.569Z,8.15
2022-10-09T05:32:41.011Z,8.17
2022-10-09T05:37:44.808Z,8.18
2022-10-09T05:42:49.671Z,8.15
2022-10-09T05:47:51.525Z,8.19
2022-10-09T05:52:52.982Z,8.21
2022-10-09T05:57:54.524Z,8.27
2022-10-09T06:02:56.047Z,8.36
2022-10-09T06:07:57.623Z,8.49
2022-10-09T06:12:59.074Z,9.39
2022-10-09T06:18:00.505Z,10.89
2022-10-09T06:23:01.948Z,12.29
2022-10-09T06:28:03.434Z,13.50
2022-10-09T06:33:04.895Z,14.96
2022-10-09T06:38:06.553Z,16.36
2022-10-09T06:43:08.228Z,17.78
2022-10-09T06:48:09.689Z,19.36
2022-10-09T06:53:11.138Z,20.75
2022-10-09T06:58:12.578Z,21.19
2022-10-09T07:03:15.277Z,21.46
2022-10-09T07:08:16.772Z,22.23
2022-10-09T07:13:18.195Z,22.53
2022-10-09T07:18:19.663Z,23.11
2022-10-09T07:23:21.132Z,23.29
2022-10-09T07:28:23.731Z,22.60
2022-10-09T07:33:25.211Z,23.31
2022-10-09T07:38:26.933Z,23.64
2022-10-09T07:43:28.981Z,24.19
2022-10-09T07:48:30.845Z,24.92
2022-10-09T07:53:35.797Z,25.21
2022-10-09T07:58:37.502Z,25.07
2022-10-09T08:03:39.001Z,22.95
2022-10-09T08:08:40.525Z,22.10
2022-10-09T08:13:42.998Z,21.38
2022-10-09T08:18:47.841Z,20.44
2022-10-09T08:23:55.259Z,19.18
2022-10-09T08:28:59.941Z,18.54
2022-10-09T08:34:03.236Z,18.03
2022-10-09T08:39:04.703Z,17.69
2022-10-09T08:44:26.789Z,17.82
2022-10-09T08:49:28.246Z,18.13
2022-10-09T08:54:38.180Z,17.94
2022-10-09T08:59:39.901Z,17.99
2022-10-09T09:05:06.556Z,18.02
2022-10-09T09:10:31.416Z,17.73
2022-10-09T09:15:53.434Z,18.35
2022-10-09T09:20:58.507Z,18.06
2022-10-09T09:26:01.182Z,18.36
2022-10-09T09:31:25.458Z,19.02
2022-10-09T09:36:42.470Z,19.32
2022-10-09T09:41:44.349Z,19.91
2022-10-09T09:46:47.639Z,20.52
2022-10-09T09:51:50.610Z,21.06
2022-10-09T09:57:18.268Z,21.45
2022-10-09T10:02:24.227Z,20.88
2022-10-09T10:07:29.276Z,20.63
2022-10-09T10:12:30.821Z,20.95
2022-10-09T10:17:34.822Z,21.68
2022-10-09T10:22:36.384Z,21.18
2022-10-09T10:27:41.901Z,21.78
2022-10-09T10:33:02.196Z,21.62
2022-10-09T10:38:05.303Z,21.11
2022-10-09T10:43:09.477Z,21.84
2022-10-09T10:48:40.128Z,22.24
2022-10-09T10:53:50.064Z,21.93
2022-10-09T10:59:04.000Z,21.43
2022-10-09T11:04:21.338Z,21.92
2022-10-09T11:09:36.060Z,21.69
2022-10-09T11:15:06.848Z,21.52
2022-10-09T11:20:19.384Z,20.64
2022-10-09T11:25:27.431Z,19.88
2022-10-09T11:30:37.715Z,19.45
2022-10-09T11:35:50.215Z,19.14
2022-10-09T11:40:52.806Z,19.29
2022-10-09T11:46:00.414Z,19.26
2022-10-09T11:51:12.654Z,19.21
2022-10-09T11:56:32.130Z,19.34
2022-10-09T12:01:42.967Z,19.15
2022-10-09T12:06:50.959Z,19.07
2022-10-09T12:11:59.573Z,19.22
2022-10-09T12:17:01.458Z,19.02
2022-10-09T12:22:27.349Z,19.07
2022-10-09T12:27:33.479Z,19.04
2022-10-09T12:33:02.360Z,18.89
2022-10-09T12:38:24.201Z,19.02
2022-10-09T12:43:25.814Z,19.13
2022-10-09T12:48:29.204Z,19.12
2022-10-09T12:53:30.799Z,19.14
2022-10-09T12:58:39.345Z,19.12
2022-10-09T13:03:43.627Z,19.11
2022-10-09T13:08:46.334Z,19.28
2022-10-09T13:13:55.103Z,19.31
2022-10-09T13:18:59.251Z,19.26
2022-10-09T13:24:08.094Z,19.15
2022-10-09T13:29:11.321Z,19.05
2022-10-09T13:34:14.029Z,19.14
2022-10-09T13:39:15.697Z,19.21
2022-10-09T13:44:17.278Z,19.24
2022-10-09T13:49:18.845Z,19.21
2022-10-09T13:54:20.363Z,19.23
2022-10-09T13:59:21.898Z,19.21
2022-10-09T14:04:23.410Z,19.20
2022-10-09T14:09:24.950Z,19.22
2022-10-09T14:14:27.965Z,19.12
2022-10-09T14:19:29.465Z,19.07
2022-10-09T14:24:30.979Z,19.06
2022-10-09T14:29:32.532Z,19.06
2022-10-09T14:34:33.966Z,19.10
2022-10-09T14:39:35.675Z,19.06
2022-10-09T14:44:37.164Z,19.04
2022-10-09T14:49:42.047Z,19.01
2022-10-09T14:54:46.225Z,18.91
2022-10-09T14:59:48.198Z,18.87
2022-10-09T15:04:51.112Z,18.81
2022-10-09T15:09:55.167Z,18.82
2022-10-09T15:14:59.989Z,18.78
2022-10-09T15:20:01.784Z,18.75
2022-10-09T15:25:03.299Z,18.71
2022-10-09T15:30:05.189Z,18.65
2022-10-09T15:35:07.478Z,18.62
2022-10-09T15:40:11.687Z,18.56
2022-10-09T15:45:13.346Z,18.50
2022-10-09T15:50:17.167Z,18.41
2022-10-09T15:55:18.694Z,18.32
2022-10-09T16:00:20.229Z,18.20
2022-10-09T16:05:29.791Z,18.08
2022-10-09T16:10:31.505Z,17.98
2022-10-09T16:15:42.292Z,17.84
2022-10-09T16:20:47.447Z,17.70
2022-10-09T16:26:02.696Z,17.55
2022-10-09T16:31:05.241Z,17.40
2022-10-09T16:36:24.019Z,17.24
2022-10-09T16:41:27.205Z,17.11
2022-10-09T16:51:36.439Z,16.79
2022-10-09T16:56:39.995Z,16.58
2022-10-09T17:01:46.107Z,16.43
2022-10-09T17:06:47.591Z,16.29
2022-10-09T17:11:49.111Z,16.16
2022-10-09T17:16:52.847Z,16.04
2022-10-09T17:21:54.260Z,15.91
2022-10-09T17:26:55.794Z,15.78
2022-10-09T17:31:57.249Z,15.62
2022-10-09T17:36:58.723Z,15.44
2022-10-09T17:42:00.177Z,15.22
2022-10-09T17:47:02.772Z,14.99
2022-10-09T17:52:07.097Z,14.82
2022-10-09T17:57:12.337Z,14.69
2022-10-09T18:02:14.255Z,14.55
2022-10-09T18:07:20.323Z,14.44
2022-10-09T18:12:22.024Z,14.26
2022-10-09T18:17:23.517Z,14.14
2022-10-09T18:22:25.098Z,14.05
2022-10-09T18:27:29.289Z,13.97
2022-10-09T18:32:31.499Z,13.92
2022-10-09T18:37:34.478Z,13.93
2022-10-09T18:42:36.408Z,13.97
2022-10-09T18:47:41.129Z,14.04
2022-10-09T18:52:43.830Z,14.28
2022-10-09T18:57:47.333Z,14.78
2022-10-09T19:02:48.756Z,15.05
2022-10-09T19:07:50.585Z,15.17
2022-10-09T19:12:54.295Z,15.32
2022-10-09T19:17:55.966Z,15.27
2022-10-09T19:22:57.444Z,15.12
2022-10-09T19:27:59.034Z,14.96
2022-10-09T19:33:00.541Z,14.74
2022-10-09T19:38:03.222Z,14.63
2022-10-09T19:43:04.735Z,14.68
2022-10-09T19:48:06.737Z,14.57
2022-10-09T19:53:08.227Z,14.28
2022-10-09T19:58:09.754Z,14.02
2022-10-09T20:03:11.341Z,13.75
2022-10-09T20:08:15.531Z,13.59
2022-10-09T20:13:16.987Z,13.56
2022-10-09T20:18:18.446Z,13.54
2022-10-09T20:23:20.615Z,13.50
2022-10-09T20:28:22.104Z,13.38
2022-10-09T20:33:23.689Z,13.22
2022-10-09T20:38:26.061Z,13.04
2022-10-09T20:43:27.612Z,12.89
2022-10-09T20:48:29.039Z,12.79
2022-10-09T20:53:30.871Z,12.65
2022-10-09T20:58:32.583Z,12.52
2022-10-09T21:03:35.493Z,12.41
2022-10-09T21:08:37.793Z,12.31
2022-10-09T21:13:42.040Z,12.21
2022-10-09T21:18:43.626Z,12.12
2022-10-09T21:23:46.104Z,12.05
2022-10-09T21:28:47.931Z,11.95
2022-10-09T21:33:50.565Z,11.85
2022-10-09T21:38:52.067Z,11.77
2022-10-09T21:43:53.574Z,11.69
2022-10-09T21:48:55.085Z,11.65
2022-10-09T21:53:56.572Z,11.59
2022-10-09T21:58:58.215Z,11.52
2022-10-09T22:03:59.813Z,11.47
2022-10-09T22:09:01.262Z,11.26
2022-10-09T22:14:04.166Z,11.17
2022-10-09T22:19:05.651Z,11.01
2022-10-09T22:24:07.262Z,10.92
2022-10-09T22:29:08.752Z,10.83
2022-10-09T22:34:10.201Z,10.75
2022-10-09T22:39:12.452Z,10.65
2022-10-09T22:44:14.237Z,10.62
2022-10-09T22:49:16.868Z,10.55
2022-10-09T22:54:19.131Z,10.49
2022-10-09T22:59:20.656Z,10.48
2022-10-09T23:04:23.220Z,10.47
2022-10-09T23:09:28.855Z,10.48
2022-10-09T23:14:30.416Z,10.49
2022-10-09T23:19:34.230Z,10.48
2022-10-09T23:24:35.683Z,10.45
2022-10-09T23:29:37.306Z,10.43
2022-10-09T23:34:38.805Z,10.38
2022-10-09T23:39:40.348Z,10.32
2022-10-09T23:44:42.216Z,10.23
2022-10-09T23:49:43.646Z,10.11
2022-10-09T23:54:45.121Z,10.04
2022-10-09T23:59:46.536Z,10.02
